Time;durP1;ratioP1;P1;durP2;ratioP2;P2;SDS_P1;SDS_P2;PMS_P1;PMS_P2;Temp;Humidity;BMP_temperature;BMP_pressure;BME280_temperature;BME280_humidity;BME280_pressure;Samples;Min_cycle;Max_cycle;Signal;HPM_P1;HPM_P2
2023/10/01 00:01:36;;;;;;;18.30;4.63;;;16.50;99.90;;;;;;4888816;29;20051;-77
2023/10/01 00:04:04;;;;;;;12.88;4.35;;;16.50;99.90;;;;;;4888424;29;20053;-76
2023/10/01 00:06:30;;;;;;;19.75;5.03;;;16.50;99.90;;;;;;4887666;29;20120;-76
2023/10/01 00:08:57;;;;;;;14.82;4.85;;;16.40;99.90;;;;;;4888650;29;20147;-76
2023/10/01 00:11:24;;;;;;;17.55;4.65;;;16.40;99.90;;;;;;4888123;29;20080;-77
2023/10/01 00:13:50;;;;;;;21.05;5.03;;;16.40;99.90;;;;;;4887489;29;20044;-77
2023/10/01 00:16:16;;;;;;;13.70;4.90;;;16.30;99.90;;;;;;4888287;29;20029;-77
2023/10/01 00:18:41;;;;;;;15.82;5.32;;;16.30;99.90;;;;;;4888627;29;20621;-77
2023/10/01 00:21:07;;;;;;;17.00;5.07;;;16.30;99.90;;;;;;4888452;29;20028;-77
2023/10/01 00:23:33;;;;;;;15.75;5.20;;;16.30;99.90;;;;;;4887276;29;20029;-77
2023/10/01 00:25:59;;;;;;;15.27;4.68;;;16.40;99.90;;;;;;4887071;29;20083;-76
2023/10/01 00:28:24;;;;;;;15.93;4.95;;;16.30;99.90;;;;;;4884381;29;20029;-77
2023/10/01 00:30:50;;;;;;;12.32;4.28;;;16.30;99.90;;;;;;4887613;29;20036;-77
2023/10/01 00:33:15;;;;;;;17.00;5.18;;;16.30;99.90;;;;;;4888298;29;20085;-76
2023/10/01 00:35:41;;;;;;;14.05;4.53;;;16.30;99.90;;;;;;4889335;29;20028;-77
2023/10/01 00:38:08;;;;;;;21.10;5.60;;;16.30;99.90;;;;;;4888106;29;20036;-77
2023/10/01 00:40:33;;;;;;;13.05;4.63;;;16.20;99.90;;;;;;4885901;29;20032;-76
2023/10/01 00:43:01;;;;;;;16.30;5.05;;;16.30;99.90;;;;;;4887865;29;20462;-77
2023/10/01 00:45:27;;;;;;;16.10;4.60;;;16.30;99.90;;;;;;4886061;29;20033;-76
2023/10/01 00:47:53;;;;;;;18.27;4.68;;;16.30;99.90;;;;;;4887654;29;20218;-76
2023/10/01 00:50:21;;;;;;;16.02;5.22;;;16.30;99.90;;;;;;4884400;29;20660;-76
2023/10/01 00:52:49;;;;;;;15.70;5.05;;;16.30;99.90;;;;;;4887692;29;20199;-77
2023/10/01 00:55:20;;;;;;;14.25;4.38;;;16.30;99.90;;;;;;4886283;29;20056;-75
2023/10/01 00:57:46;;;;;;;13.20;4.78;;;16.20;99.90;;;;;;4885853;29;20033;-77
2023/10/01 01:00:16;;;;;;;20.40;5.65;;;16.20;99.90;;;;;;4887551;29;20037;-76
2023/10/01 01:02:57;;;;;;;18.30;5.10;;;16.10;99.90;;;;;;4887245;29;20542;-76
2023/10/01 01:05:36;;;;;;;19.73;5.22;;;16.10;99.90;;;;;;4886018;29;20131;-77
2023/10/01 01:08:21;;;;;;;15.25;5.18;;;16.10;99.90;;;;;;4887741;29;20036;-76
2023/10/01 01:10:51;;;;;;;15.43;4.68;;;16.10;99.90;;;;;;4878739;29;20102;-76
2023/10/01 01:13:16;;;;;;;13.25;4.47;;;16.10;99.90;;;;;;4887218;29;20057;-77
2023/10/01 01:15:46;;;;;;;15.07;4.70;;;16.10;99.90;;;;;;4885926;29;20068;-76
2023/10/01 01:18:20;;;;;;;12.00;4.65;;;16.00;99.90;;;;;;4877129;29;20029;-76
2023/10/01 01:20:46;;;;;;;13.70;5.40;;;16.00;99.90;;;;;;4885347;29;20207;-76
2023/10/01 01:23:16;;;;;;;18.20;5.10;;;16.00;99.90;;;;;;4886123;29;20570;-76
2023/10/01 01:25:43;;;;;;;12.20;4.80;;;16.00;99.90;;;;;;4887662;29;20043;-76
2023/10/01 01:28:12;;;;;;;13.00;4.90;;;16.00;99.90;;;;;;4884946;29;20533;-76
2023/10/01 01:30:42;;;;;;;12.52;4.70;;;16.00;99.90;;;;;;4877197;29;20139;-76
2023/10/01 01:33:08;;;;;;;20.20;6.18;;;16.00;99.90;;;;;;4883967;29;20052;-76
2023/10/01 01:35:35;;;;;;;14.65;4.10;;;16.00;99.90;;;;;;4888745;29;20076;-76
2023/10/01 01:38:02;;;;;;;14.02;4.18;;;15.90;99.90;;;;;;4888936;29;20123;-76
2023/10/01 01:40:36;;;;;;;15.70;4.80;;;15.90;99.90;;;;;;4889475;29;20039;-77
2023/10/01 01:43:15;;;;;;;14.93;4.32;;;15.80;99.90;;;;;;4906298;29;20068;-77
2023/10/01 01:45:44;;;;;;;16.90;4.57;;;15.80;99.90;;;;;;4908888;29;20042;-76
2023/10/01 01:48:26;;;;;;;13.98;4.18;;;15.70;99.90;;;;;;4903223;29;20112;-76
2023/10/01 01:50:54;;;;;;;14.57;4.10;;;15.70;99.90;;;;;;4902932;29;20095;-76
2023/10/01 01:53:21;;;;;;;17.10;4.60;;;15.60;99.90;;;;;;4905188;29;20080;-76
2023/10/01 01:55:47;;;;;;;12.18;4.45;;;15.60;99.90;;;;;;4890202;29;20036;-76
2023/10/01 01:58:15;;;;;;;16.15;4.85;;;15.60;99.90;;;;;;4883288;29;20021;-76
2023/10/01 02:03:32;;;;;;;11.65;3.47;;;15.50;99.90;;;;;;4891061;29;20058;-76
2023/10/01 02:05:59;;;;;;;11.85;4.03;;;15.40;99.90;;;;;;4887977;29;20036;-76
2023/10/01 02:08:24;;;;;;;12.02;3.55;;;15.40;99.90;;;;;;4890300;29;20088;-76
2023/10/01 02:10:56;;;;;;;12.63;4.28;;;15.40;99.90;;;;;;4888438;29;20045;-76
2023/10/01 02:13:25;;;;;;;17.85;4.82;;;15.30;99.90;;;;;;4887835;29;20076;-76
2023/10/01 02:15:51;;;;;;;14.40;4.80;;;15.30;99.90;;;;;;4889958;29;20032;-76
2023/10/01 02:18:17;;;;;;;12.43;4.03;;;15.20;99.90;;;;;;4889401;29;20032;-76
2023/10/01 02:20:44;;;;;;;11.80;3.90;;;15.20;99.90;;;;;;4880804;29;20387;-76
2023/10/01 02:23:12;;;;;;;13.48;4.35;;;15.20;99.90;;;;;;4882661;29;20032;-76
2023/10/01 02:25:46;;;;;;;14.45;4.60;;;15.10;99.90;;;;;;4888381;29;20036;-77
2023/10/01 02:28:15;;;;;;;12.60;4.38;;;15.10;99.90;;;;;;4888688;29;20123;-76
2023/10/01 02:30:41;;;;;;;18.30;4.85;;;15.10;99.90;;;;;;4879120;29;20044;-76
2023/10/01 02:33:18;;;;;;;15.70;5.18;;;15.10;99.90;;;;;;4883004;29;20063;-78
2023/10/01 02:35:49;;;;;;;17.30;4.35;;;15.10;99.90;;;;;;4875097;29;20032;-76
2023/10/01 02:41:02;;;;;;;14.25;4.30;;;15.10;99.90;;;;;;4879257;29;20307;-77
2023/10/01 02:43:34;;;;;;;12.85;4.28;;;15.00;99.90;;;;;;4889584;29;20020;-77
2023/10/01 02:46:11;;;;;;;15.13;4.18;;;15.00;99.90;;;;;;4888974;29;20148;-76
2023/10/01 02:48:40;;;;;;;11.20;4.40;;;14.90;99.90;;;;;;4888068;29;20028;-76
2023/10/01 02:51:15;;;;;;;14.48;4.15;;;14.90;99.90;;;;;;4885205;29;20447;-76
2023/10/01 02:56:33;;;;;;;10.88;4.07;;;14.90;99.90;;;;;;4889890;29;20173;-77
2023/10/01 02:59:15;;;;;;;12.27;4.10;;;14.80;99.90;;;;;;4889436;29;20024;-76
2023/10/01 03:01:47;;;;;;;11.20;4.00;;;14.70;99.90;;;;;;4884193;29;20099;-76
2023/10/01 03:04:15;;;;;;;14.88;4.15;;;14.70;99.90;;;;;;4887450;29;20552;-77
2023/10/01 03:06:54;;;;;;;16.00;4.63;;;14.70;99.90;;;;;;4888776;29;20032;-76
2023/10/01 03:09:31;;;;;;;18.27;5.50;;;14.70;99.90;;;;;;4887858;29;20047;-77
2023/10/01 03:12:24;;;;;;;16.38;5.40;;;14.70;99.90;;;;;;4889139;29;20032;-76
2023/10/01 03:14:59;;;;;;;15.48;4.60;;;14.80;99.90;;;;;;4888425;29;20037;-75
2023/10/01 03:17:38;;;;;;;16.55;5.30;;;14.80;99.90;;;;;;4889038;29;20096;-76
2023/10/01 03:21:17;;;;;;;13.93;5.50;;;14.90;99.90;;;;;;4870700;29;20120;-76
2023/10/01 03:25:58;;;;;;;20.30;4.97;;;14.90;99.90;;;;;;4880799;29;20494;-76
2023/10/01 03:28:27;;;;;;;14.25;4.90;;;15.00;99.90;;;;;;4884739;29;20127;-76
2023/10/01 03:31:06;;;;;;;14.88;5.20;;;15.00;99.90;;;;;;4888079;29;20033;-76
2023/10/01 03:33:33;;;;;;;15.45;4.85;;;15.10;99.90;;;;;;4887023;29;20112;-77
2023/10/01 03:35:58;;;;;;;15.48;4.80;;;15.10;99.90;;;;;;4882817;29;20485;-77
2023/10/01 03:38:27;;;;;;;17.38;5.03;;;15.10;99.90;;;;;;4884767;29;20033;-76
2023/10/01 03:41:07;;;;;;;17.92;6.13;;;15.10;99.90;;;;;;4887461;29;20029;-76
2023/10/01 03:43:35;;;;;;;17.27;5.78;;;15.10;99.90;;;;;;4886129;29;20037;-76
2023/10/01 03:48:58;;;;;;;16.88;5.28;;;15.20;99.90;;;;;;4887217;29;20143;-76
2023/10/01 03:52:20;;;;;;;17.67;5.97;;;15.20;99.90;;;;;;4878412;29;20757;-77
2023/10/01 03:54:51;;;;;;;11.55;4.20;;;15.20;99.90;;;;;;4880543;29;20048;-76
2023/10/01 03:57:16;;;;;;;13.82;4.15;;;15.20;99.90;;;;;;4886905;29;20044;-76
2023/10/01 03:59:51;;;;;;;13.05;4.03;;;15.10;99.90;;;;;;4888961;29;20113;-76
2023/10/01 04:05:06;;;;;;;13.10;4.93;;;15.00;99.90;;;;;;4887130;29;20120;-78
2023/10/01 04:07:42;;;;;;;13.68;4.10;;;14.90;99.90;;;;;;4886954;29;20952;-77
2023/10/01 04:10:14;;;;;;;10.30;4.07;;;14.90;99.90;;;;;;4886480;29;20359;-77
2023/10/01 04:12:44;;;;;;;14.13;5.00;;;14.80;99.90;;;;;;4888207;29;20044;-77
2023/10/01 04:15:21;;;;;;;12.13;4.78;;;14.80;99.90;;;;;;4876400;29;20040;-77
2023/10/01 04:18:09;;;;;;;12.63;4.57;;;14.80;99.90;;;;;;4879753;29;20071;-77
2023/10/01 04:20:33;;;;;;;13.65;5.00;;;14.70;99.90;;;;;;4884123;29;20040;-77
2023/10/01 04:23:04;;;;;;;17.42;5.20;;;14.80;99.90;;;;;;4887504;29;20024;-77
2023/10/01 04:25:36;;;;;;;13.35;4.70;;;14.70;99.90;;;;;;4888687;29;20180;-77
2023/10/01 04:28:05;;;;;;;16.63;5.07;;;14.70;99.90;;;;;;4884316;29;20480;-77
2023/10/01 04:30:34;;;;;;;17.63;5.22;;;14.70;99.90;;;;;;4885649;29;20139;-77
2023/10/01 04:33:16;;;;;;;13.98;5.40;;;14.70;99.90;;;;;;4887872;29;20054;-77
2023/10/01 04:35:51;;;;;;;16.02;5.25;;;14.70;99.90;;;;;;4888396;29;20123;-77
2023/10/01 04:38:21;;;;;;;13.85;4.65;;;14.70;99.90;;;;;;4886961;29;20044;-77
2023/10/01 04:40:48;;;;;;;15.35;6.03;;;14.70;99.90;;;;;;4895790;29;20032;-77
2023/10/01 04:43:19;;;;;;;17.45;5.93;;;14.70;99.90;;;;;;4888149;29;20020;-76
2023/10/01 04:45:47;;;;;;;12.15;5.88;;;14.70;99.90;;;;;;4877212;29;20041;-76
2023/10/01 04:48:22;;;;;;;16.17;4.95;;;14.70;99.90;;;;;;4887737;29;20383;-77
2023/10/01 04:50:53;;;;;;;20.48;5.80;;;14.70;99.90;;;;;;4881276;29;20044;-77
2023/10/01 04:53:22;;;;;;;13.75;4.97;;;14.70;99.90;;;;;;4888330;29;20099;-77
2023/10/01 04:56:11;;;;;;;13.90;4.95;;;14.70;99.90;;;;;;4874961;29;20047;-77
2023/10/01 04:58:36;;;;;;;19.40;5.28;;;14.70;99.90;;;;;;4885323;29;20446;-77
2023/10/01 05:01:10;;;;;;;15.82;5.57;;;14.70;99.90;;;;;;4886907;29;20048;-76
2023/10/01 05:03:41;;;;;;;14.90;6.05;;;14.70;99.90;;;;;;4881606;29;20060;-77
2023/10/01 05:06:11;;;;;;;16.30;5.82;;;14.80;99.90;;;;;;4873746;29;20040;-77
2023/10/01 05:08:40;;;;;;;17.20;5.57;;;14.80;99.90;;;;;;4883466;29;20032;-79
2023/10/01 05:11:16;;;;;;;19.25;5.75;;;14.80;99.90;;;;;;4886416;29;20140;-78
2023/10/01 05:13:43;;;;;;;13.85;5.72;;;14.70;99.90;;;;;;4886585;29;20040;-78
2023/10/01 05:16:13;;;;;;;23.42;6.57;;;14.80;99.90;;;;;;4886567;29;20040;-78
2023/10/01 05:18:43;;;;;;;23.67;7.00;;;14.80;99.90;;;;;;4886787;29;20036;-78
2023/10/01 05:21:12;;;;;;;17.90;5.70;;;14.80;99.90;;;;;;4888271;29;20067;-78
2023/10/01 05:23:41;;;;;;;18.55;5.97;;;14.80;99.90;;;;;;4887076;29;20025;-78
2023/10/01 05:26:08;;;;;;;17.58;5.63;;;14.80;99.90;;;;;;4887986;29;20135;-78
2023/10/01 05:28:36;;;;;;;19.85;6.75;;;14.80;99.90;;;;;;4881848;29;20039;-78
2023/10/01 05:31:08;;;;;;;24.35;7.55;;;14.90;99.90;;;;;;4868361;29;20496;-78
2023/10/01 05:33:34;;;;;;;19.38;7.40;;;14.90;99.90;;;;;;4875128;29;20054;-78
2023/10/01 05:36:04;;;;;;;25.80;9.00;;;14.90;99.90;;;;;;4888279;29;20058;-77
2023/10/01 05:38:35;;;;;;;28.88;9.38;;;15.10;99.90;;;;;;4887386;29;20020;-78
2023/10/01 05:41:05;;;;;;;27.20;9.07;;;15.20;99.90;;;;;;4886263;29;20044;-79
2023/10/01 05:43:37;;;;;;;18.08;9.05;;;15.30;99.90;;;;;;4887636;29;20399;-77
2023/10/01 05:46:09;;;;;;;18.25;8.38;;;15.30;99.90;;;;;;4887610;29;20044;-77
2023/10/01 05:48:39;;;;;;;23.55;8.65;;;15.40;99.90;;;;;;4882584;29;20028;-79
2023/10/01 05:51:12;;;;;;;16.40;6.78;;;15.40;99.90;;;;;;4881163;29;20037;-78
2023/10/01 05:53:48;;;;;;;13.07;5.70;;;15.40;99.90;;;;;;4886586;29;20028;-79
2023/10/01 05:56:17;;;;;;;17.20;6.25;;;15.30;99.90;;;;;;4883165;29;20037;-79
2023/10/01 05:58:43;;;;;;;17.67;6.13;;;15.20;99.90;;;;;;4885388;29;20096;-78
2023/10/01 06:01:16;;;;;;;13.00;5.13;;;15.10;99.90;;;;;;4887948;29;20415;-79
2023/10/01 06:03:44;;;;;;;15.68;5.55;;;15.00;99.90;;;;;;4887235;29;20032;-78
2023/10/01 06:06:13;;;;;;;12.10;4.78;;;15.00;99.90;;;;;;4887475;29;20044;-79
2023/10/01 06:08:49;;;;;;;19.92;5.93;;;15.00;99.90;;;;;;4884519;29;20136;-78
2023/10/01 06:11:16;;;;;;;18.95;7.47;;;15.00;99.90;;;;;;4881376;29;20119;-79
2023/10/01 06:13:50;;;;;;;17.15;6.53;;;15.10;99.90;;;;;;4887706;29;20594;-78
2023/10/01 06:16:24;;;;;;;17.58;7.05;;;15.10;99.90;;;;;;4886536;29;20044;-78
2023/10/01 06:18:56;;;;;;;17.85;7.72;;;15.30;99.90;;;;;;4885218;29;20143;-78
2023/10/01 06:21:33;;;;;;;15.48;6.82;;;15.40;99.90;;;;;;4886420;29;20103;-79
2023/10/01 06:24:07;;;;;;;17.50;6.38;;;15.40;99.90;;;;;;4891004;29;20039;-78
2023/10/01 06:26:50;;;;;;;16.98;6.97;;;15.40;99.90;;;;;;4875577;29;20044;-80
2023/10/01 06:29:16;;;;;;;16.13;6.60;;;15.40;99.90;;;;;;4887615;29;20037;-79
2023/10/01 06:32:01;;;;;;;17.50;6.30;;;15.40;99.90;;;;;;4883699;29;20052;-79
2023/10/01 06:34:32;;;;;;;13.60;6.40;;;15.50;99.90;;;;;;4874999;29;20044;-79
2023/10/01 06:36:59;;;;;;;22.70;8.33;;;15.50;99.90;;;;;;4879328;29;20029;-79
2023/10/01 06:39:25;;;;;;;21.88;7.25;;;15.80;99.90;;;;;;4888356;29;20048;-80
2023/10/01 06:42:17;;;;;;;15.25;6.40;;;15.90;99.90;;;;;;4889289;29;20055;-79
2023/10/01 06:44:39;;;;;;;64.03;31.30;;;15.90;99.90;;;;;;4885739;29;20032;-79
2023/10/01 06:47:14;;;;;;;20.90;7.80;;;16.00;99.90;;;;;;4891010;29;20111;-79
2023/10/01 06:49:56;;;;;;;13.60;5.40;;;16.10;99.90;;;;;;4891010;29;20051;-79
2023/10/01 06:52:28;;;;;;;19.63;5.88;;;16.20;99.90;;;;;;4874810;29;20029;-79
2023/10/01 06:55:01;;;;;;;15.10;6.55;;;16.30;99.90;;;;;;4872092;29;20093;-79
2023/10/01 06:57:33;;;;;;;15.05;5.93;;;16.30;99.90;;;;;;4885122;29;20024;-79
2023/10/01 07:00:04;;;;;;;14.07;6.35;;;16.40;99.90;;;;;;4889967;29;20501;-79
2023/10/01 07:02:31;;;;;;;;;;;16.60;99.90;;;;;;4889464;29;20044;-79
2023/10/01 07:04:58;;;;;;;17.73;5.55;;;16.70;99.90;;;;;;4889073;29;19916;-79
2023/10/01 07:07:28;;;;;;;17.42;6.43;;;16.90;99.90;;;;;;4889376;29;20040;-79
2023/10/01 07:09:56;;;;;;;27.10;7.18;;;17.00;99.90;;;;;;4885036;29;20041;-79
2023/10/01 07:12:23;;;;;;;16.60;6.90;;;17.30;99.90;;;;;;4888852;29;20386;-79
2023/10/01 07:14:53;;;;;;;15.25;6.10;;;17.40;99.90;;;;;;4884495;29;20048;-80
2023/10/01 07:17:25;;;;;;;15.00;5.63;;;17.50;99.90;;;;;;4885124;29;20048;-79
2023/10/01 07:19:59;;;;;;;13.63;5.70;;;17.60;99.90;;;;;;4885927;29;20041;-79
2023/10/01 07:22:32;;;;;;;19.67;7.10;;;17.70;99.90;;;;;;4887659;29;20482;-79
2023/10/01 07:25:03;;;;;;;16.45;6.90;;;17.80;99.90;;;;;;4887921;29;20119;-79
2023/10/01 07:27:29;;;;;;;18.30;7.00;;;17.90;99.90;;;;;;4888059;29;20029;-79
2023/10/01 07:29:56;;;;;;;16.15;6.53;;;18.00;99.90;;;;;;4889578;29;20062;-78
2023/10/01 07:32:24;;;;;;;18.70;6.78;;;18.10;99.90;;;;;;4888739;29;20359;-79
2023/10/01 07:34:58;;;;;;;21.75;6.97;;;18.20;99.90;;;;;;4889900;29;20092;-78
2023/10/01 07:37:25;;;;;;;16.77;7.18;;;18.30;99.90;;;;;;4889727;29;20044;-79
2023/10/01 07:39:55;;;;;;;12.07;5.43;;;18.40;99.90;;;;;;4890802;29;20104;-78
2023/10/01 07:42:22;;;;;;;15.32;6.55;;;18.50;99.90;;;;;;4889587;29;20036;-78
2023/10/01 07:44:49;;;;;;;20.27;6.72;;;18.60;99.90;;;;;;4888321;29;20071;-79
2023/10/01 07:47:28;;;;;;;16.05;6.35;;;18.80;99.90;;;;;;4889697;29;20084;-79
2023/10/01 07:49:56;;;;;;;20.80;7.07;;;19.00;99.90;;;;;;4887171;29;20189;-79
2023/10/01 07:52:23;;;;;;;15.32;5.97;;;19.20;99.90;;;;;;4887018;29;20033;-78
2023/10/01 07:54:49;;;;;;;14.60;5.10;;;19.40;99.90;;;;;;4888021;29;20534;-79
2023/10/01 07:57:27;;;;;;;17.30;5.80;;;19.50;99.90;;;;;;4881314;29;20067;-77
2023/10/01 07:59:54;;;;;;;19.92;6.47;;;19.70;99.90;;;;;;4886168;29;20156;-77
2023/10/01 08:02:21;;;;;;;17.30;6.57;;;19.70;99.90;;;;;;4884621;29;20029;-77
2023/10/01 08:04:57;;;;;;;15.70;6.18;;;19.80;99.90;;;;;;4886261;29;20123;-77
2023/10/01 08:07:30;;;;;;;19.60;6.25;;;20.00;99.90;;;;;;4885425;29;20036;-77
2023/10/01 08:09:58;;;;;;;19.42;5.97;;;20.20;99.90;;;;;;4885076;29;20498;-77
2023/10/01 08:12:29;;;;;;;16.92;5.95;;;20.40;99.90;;;;;;4883984;29;20112;-77
2023/10/01 08:15:29;;;;;;;16.95;5.90;;;20.60;99.90;;;;;;4878538;29;20032;-77
2023/10/01 08:17:56;;;;;;;15.90;5.60;;;20.70;99.90;;;;;;4879945;29;20041;-76
2023/10/01 08:20:22;;;;;;;16.10;5.95;;;21.00;99.90;;;;;;4883152;29;20059;-76
2023/10/01 08:25:33;;;;;;;15.50;5.30;;;21.10;99.90;;;;;;4889366;29;20114;-78
2023/10/01 08:30:39;;;;;;;16.33;5.57;;;23.00;99.90;;;;;;4886524;29;20048;-78
2023/10/01 08:33:32;;;;;;;14.18;5.55;;;24.50;99.90;;;;;;4881009;29;20119;-77
2023/10/01 08:36:14;;;;;;;17.75;6.10;;;25.30;99.90;;;;;;4883706;29;20039;-77
2023/10/01 08:38:47;;;;;;;15.75;6.28;;;26.20;99.90;;;;;;4882831;29;20036;-77
2023/10/01 08:41:33;;;;;;;15.23;5.25;;;26.70;99.90;;;;;;4882488;29;20036;-78
2023/10/01 08:44:09;;;;;;;15.60;5.22;;;27.80;99.90;;;;;;4882415;29;20036;-76
2023/10/01 08:46:39;;;;;;;10.38;4.72;;;28.30;99.90;;;;;;4880337;29;20036;-76
2023/10/01 08:49:23;;;;;;;15.23;5.63;;;28.70;99.90;;;;;;4884047;29;20041;-77
2023/10/01 08:51:52;;;;;;;13.55;5.68;;;28.70;99.90;;;;;;4880913;29;20447;-77
2023/10/01 08:54:25;;;;;;;12.85;5.43;;;28.30;99.90;;;;;;4880153;29;20118;-78
2023/10/01 08:56:52;;;;;;;14.15;5.25;;;27.90;99.90;;;;;;4882094;29;20028;-78
2023/10/01 08:59:25;;;;;;;14.90;5.80;;;27.20;99.90;;;;;;4882102;29;20028;-77
2023/10/01 09:01:55;;;;;;;11.43;4.57;;;26.60;99.90;;;;;;4878668;29;20375;-76
2023/10/01 09:07:18;;;;;;;15.55;5.35;;;25.80;99.90;;;;;;4875068;29;20100;-77
2023/10/01 09:10:05;;;;;;;13.32;5.47;;;25.30;99.90;;;;;;4881268;29;20037;-78
2023/10/01 09:12:45;;;;;;;13.60;5.70;;;24.90;99.90;;;;;;4888113;29;20146;-77
2023/10/01 09:15:24;;;;;;;15.95;6.10;;;24.40;99.90;;;;;;4879791;29;20735;-77
2023/10/01 09:17:56;;;;;;;13.80;5.55;;;23.90;99.90;;;;;;4884618;29;20088;-76
2023/10/01 09:21:06;;;;;;;12.50;5.18;;;23.80;99.90;;;;;;4884859;29;20056;-77
2023/10/01 09:23:55;;;;;;;13.05;4.72;;;24.00;99.90;;;;;;4887942;29;20040;-77
2023/10/01 09:26:42;;;;;;;9.95;5.13;;;24.30;99.90;;;;;;4889926;29;20039;-77
2023/10/01 09:29:24;;;;;;;12.52;5.00;;;24.30;99.90;;;;;;4891998;29;20577;-77
2023/10/01 09:31:58;;;;;;;15.52;5.95;;;24.50;99.90;;;;;;4890899;29;20597;-77
2023/10/01 09:34:34;;;;;;;12.45;4.80;;;24.90;99.90;;;;;;4895996;29;20024;-77
2023/10/01 09:37:06;;;;;;;12.88;4.82;;;25.10;99.90;;;;;;4885555;29;20119;-77
2023/10/01 09:39:41;;;;;;;15.23;4.97;;;25.00;99.90;;;;;;4883802;29;20108;-78
2023/10/01 09:42:25;;;;;;;10.63;4.68;;;25.20;99.90;;;;;;4881401;29;20114;-77
2023/10/01 09:45:09;;;;;;;14.18;4.68;;;25.30;99.90;;;;;;4878880;29;20415;-76
2023/10/01 09:47:35;;;;;;;12.88;5.05;;;25.50;99.90;;;;;;4880620;29;20684;-76
2023/10/01 09:50:04;;;;;;;9.07;4.75;;;25.30;99.90;;;;;;4877871;29;20120;-76
2023/10/01 09:52:34;;;;;;;17.67;5.88;;;25.20;99.90;;;;;;4879992;29;20032;-77
2023/10/01 09:57:37;;;;;;;14.52;5.53;;;25.10;99.90;;;;;;5615968;23;20133;-76
2023/10/01 10:00:20;;;;;;;16.25;5.43;;;25.00;99.90;;;;;;4857494;29;20837;-78
2023/10/01 10:02:51;;;;;;;18.90;6.60;;;24.80;99.90;;;;;;3842397;29;10000626;-77
2023/10/01 10:05:28;;;;;;;13.63;5.65;;;24.50;99.90;;;;;;4849141;29;20029;-77
2023/10/01 10:08:13;;;;;;;13.98;5.55;;;24.00;99.90;;;;;;4862730;23;20060;-70
2023/10/01 10:10:48;;;;;;;16.60;6.07;;;23.90;99.90;;;;;;4882910;29;20055;-69
2023/10/01 10:13:36;;;;;;;16.30;5.75;;;23.70;99.90;;;;;;4862672;29;20108;-68
2023/10/01 10:19:16;;;;;;;13.30;5.72;;;23.80;99.90;;;;;;4882494;29;20097;-69
2023/10/01 10:22:41;;;;;;;15.70;6.00;;;23.60;99.90;;;;;;4876270;29;20491;-69
2023/10/01 10:24:47;;;;;;;15.85;6.00;;;23.70;99.90;;;;;;4876207;29;20092;-69
2023/10/01 10:27:28;;;;;;;14.38;5.68;;;23.80;99.90;;;;;;4885223;29;20029;-68
2023/10/01 10:29:57;;;;;;;;;;;23.90;99.90;;;;;;4885858;29;20072;-68
2023/10/01 10:32:30;;;;;;;18.23;6.13;;;24.00;99.90;;;;;;4885323;29;19962;-69
2023/10/01 10:35:05;;;;;;;14.18;5.45;;;23.90;99.90;;;;;;4880174;29;20036;-69
2023/10/01 10:37:36;;;;;;;13.35;5.93;;;23.50;99.90;;;;;;4882499;29;20108;-69
2023/10/01 10:40:04;;;;;;;14.55;5.65;;;23.30;99.90;;;;;;4880893;29;20276;-69
2023/10/01 10:42:33;;;;;;;16.55;5.68;;;23.20;99.90;;;;;;4883423;29;20037;-69
2023/10/01 10:45:19;;;;;;;16.08;5.80;;;23.20;99.90;;;;;;4885870;29;20439;-69
2023/10/01 10:48:03;;;;;;;14.73;5.32;;;23.30;99.90;;;;;;4881237;29;20210;-69
2023/10/01 10:50:39;;;;;;;17.08;5.97;;;23.30;99.90;;;;;;4887814;29;20451;-69
2023/10/01 10:53:26;;;;;;;17.10;5.70;;;23.40;99.90;;;;;;4885586;29;20037;-69
2023/10/01 10:55:55;;;;;;;15.75;5.43;;;23.60;99.90;;;;;;4888667;29;20040;-69
2023/10/01 10:58:24;;;;;;;15.48;6.15;;;23.70;99.90;;;;;;4888634;29;20047;-70
2023/10/01 11:00:52;;;;;;;14.55;5.60;;;23.70;99.90;;;;;;4879922;29;20131;-69
2023/10/01 11:03:40;;;;;;;14.93;6.05;;;23.40;99.90;;;;;;4884366;29;20192;-69
2023/10/01 11:06:20;;;;;;;12.75;5.40;;;23.10;99.90;;;;;;4883305;29;20060;-70
2023/10/01 11:08:50;;;;;;;11.32;4.82;;;23.00;99.90;;;;;;4882171;29;20582;-70
2023/10/01 11:11:39;;;;;;;13.00;5.20;;;22.90;99.90;;;;;;4884145;29;20051;-69
2023/10/01 11:14:17;;;;;;;13.98;5.07;;;22.60;99.90;;;;;;4883477;29;20267;-70
2023/10/01 11:16:44;;;;;;;14.27;5.43;;;22.50;99.90;;;;;;4884390;29;20033;-70
2023/10/01 11:19:12;;;;;;;14.05;5.40;;;22.60;99.90;;;;;;4883955;29;20032;-70
2023/10/01 11:21:56;;;;;;;17.35;5.93;;;22.80;99.90;;;;;;4888421;29;20036;-69
2023/10/01 11:24:30;;;;;;;15.18;6.00;;;22.80;99.90;;;;;;4876344;29;20128;-70
2023/10/01 11:27:22;;;;;;;18.63;5.88;;;22.90;99.90;;;;;;4877475;29;20033;-70
2023/10/01 11:30:12;;;;;;;16.10;6.05;;;23.20;99.90;;;;;;4878465;29;20046;-70
2023/10/01 11:33:13;;;;;;;18.08;6.85;;;23.30;99.90;;;;;;4884433;29;20328;-69
2023/10/01 11:36:06;;;;;;;17.90;5.80;;;23.10;99.90;;;;;;4880162;29;20135;-69
2023/10/01 11:38:33;;;;;;;16.23;6.75;;;23.00;99.90;;;;;;4884030;29;20451;-70
2023/10/01 11:41:12;;;;;;;16.75;6.13;;;22.90;99.90;;;;;;4888124;29;20462;-70
2023/10/01 11:43:40;;;;;;;18.83;6.50;;;22.60;99.90;;;;;;4883613;29;20445;-70
2023/10/01 11:46:34;;;;;;;17.60;6.43;;;22.50;99.90;;;;;;4884872;29;20043;-70
2023/10/01 11:49:06;;;;;;;15.48;6.32;;;22.30;99.90;;;;;;4868290;29;20178;-70
2023/10/01 11:51:41;;;;;;;15.85;6.50;;;22.30;99.90;;;;;;4872501;29;20463;-69
2023/10/01 11:54:10;;;;;;;19.75;6.68;;;22.10;99.90;;;;;;4879583;29;20528;-69
2023/10/01 11:56:37;;;;;;;15.23;6.80;;;22.10;99.90;;;;;;4882853;29;20036;-69
2023/10/01 11:59:05;;;;;;;16.85;5.75;;;22.20;99.90;;;;;;4885332;29;20028;-70
2023/10/01 12:01:39;;;;;;;19.90;6.50;;;22.50;99.90;;;;;;4878012;29;20028;-69
2023/10/01 12:04:06;;;;;;;19.63;6.82;;;22.60;99.90;;;;;;4875296;29;20033;-69
2023/10/01 12:06:34;;;;;;;19.75;6.57;;;22.60;99.90;;;;;;4877344;29;20021;-70
2023/10/01 12:09:00;;;;;;;22.42;6.63;;;22.70;99.90;;;;;;4879825;29;20056;-70
2023/10/01 12:11:26;;;;;;;18.02;6.50;;;22.70;99.90;;;;;;4881603;29;20048;-70
2023/10/01 12:14:08;;;;;;;21.42;6.78;;;22.80;99.90;;;;;;4878085;29;20051;-70
2023/10/01 12:16:39;;;;;;;17.00;6.07;;;22.90;99.90;;;;;;4874363;29;20072;-70
2023/10/01 12:19:23;;;;;;;18.05;6.78;;;23.10;99.90;;;;;;4528125;29;10000287;-69
2023/10/01 12:22:05;;;;;;;17.02;6.40;;;23.20;99.90;;;;;;4870794;29;20103;-70
2023/10/01 12:24:40;;;;;;;16.10;6.38;;;23.40;99.90;;;;;;4867890;29;20029;-69
2023/10/01 12:27:10;;;;;;;18.00;6.55;;;23.60;99.90;;;;;;4873192;29;20416;-70
2023/10/01 12:29:42;;;;;;;18.10;6.38;;;23.80;99.90;;;;;;4867165;29;20028;-69
2023/10/01 12:32:10;;;;;;;19.38;6.13;;;24.10;99.90;;;;;;4867473;29;20119;-70
2023/10/01 12:34:36;;;;;;;19.98;6.38;;;24.30;99.90;;;;;;4866521;29;20081;-70
2023/10/01 12:37:07;;;;;;;19.90;6.47;;;24.20;99.90;;;;;;4870361;29;20115;-70
2023/10/01 12:39:34;;;;;;;16.75;6.35;;;24.20;99.90;;;;;;4864929;29;20111;-70
2023/10/01 12:42:04;;;;;;;14.70;6.03;;;24.20;99.90;;;;;;4867264;29;20032;-69
2023/10/01 12:44:32;;;;;;;;;;;24.10;99.90;;;;;;4868939;29;20128;-70
2023/10/01 12:47:00;;;;;;;19.52;7.05;;;23.90;99.90;;;;;;4870269;29;20333;-70
2023/10/01 12:49:33;;;;;;;15.40;6.25;;;23.80;99.90;;;;;;4875581;29;20044;-70
2023/10/01 12:52:08;;;;;;;16.52;6.13;;;23.90;99.90;;;;;;4878478;29;20036;-70
2023/10/01 12:54:38;;;;;;;18.10;6.65;;;23.90;99.90;;;;;;4883106;29;20223;-69
2023/10/01 12:57:18;;;;;;;20.33;6.30;;;23.70;99.90;;;;;;4883984;29;20040;-68
2023/10/01 12:59:46;;;;;;;17.75;6.47;;;23.80;99.90;;;;;;4880782;29;20032;-70
2023/10/01 13:07:46;;;;;;;12.48;5.90;;;25.10;99.90;;;;;;4870901;29;20104;-70
2023/10/01 13:10:13;;;;;;;17.13;7.55;;;25.30;99.90;;;;;;4884448;29;20056;-70
2023/10/01 13:12:49;;;;;;;18.83;6.25;;;25.30;99.90;;;;;;4882240;29;20475;-70
2023/10/01 13:15:15;;;;;;;19.40;6.50;;;25.20;99.90;;;;;;4882142;29;20141;-70
2023/10/01 13:17:44;;;;;;;17.20;6.57;;;25.10;99.90;;;;;;4881998;29;20486;-70
2023/10/01 13:20:25;;;;;;;19.98;7.32;;;25.00;99.90;;;;;;4875420;29;20040;-70
2023/10/01 13:23:06;;;;;;;15.57;5.82;;;24.70;99.90;;;;;;4880552;29;20033;-70
2023/10/01 13:25:33;;;;;;;;;;;24.90;99.90;;;;;;4877343;29;20033;-70
2023/10/01 13:28:02;;;;;;;16.58;6.68;;;25.10;99.90;;;;;;4863156;29;20375;-70
2023/10/01 13:30:30;;;;;;;18.15;6.03;;;25.20;99.90;;;;;;4863367;29;20080;-70
2023/10/01 13:33:14;;;;;;;19.77;6.30;;;25.30;99.90;;;;;;4874205;29;20194;-70
2023/10/01 13:35:56;;;;;;;17.35;6.55;;;25.60;99.90;;;;;;4879979;29;20387;-70
2023/10/01 13:39:13;;;;;;;15.88;6.55;;;25.60;99.90;;;;;;4879835;29;20029;-70
2023/10/01 14:08:50;;;;;;;14.45;6.47;;;24.90;99.90;;;;;;4878749;29;20414;-71
2023/10/01 14:11:16;;;;;;;17.17;6.53;;;24.80;99.90;;;;;;4885719;29;20375;-71